Time;durP1;ratioP1;P1;durP2;ratioP2;P2;SDS_P1;SDS_P2;PMS_P1;PMS_P2;Temp;Humidity;BMP_temperature;BMP_pressure;BME280_temperature;BME280_humidity;BME280_pressure;Samples;Min_cycle;Max_cycle;Signal;HPM_P1;HPM_P2
2021/12/01 00:00:55;;;;;;;9.40;0.73;;;3.60;92.60;;;;;;5092322;28;20185;-54
2021/12/01 00:03:21;;;;;;;0.57;0.40;;;3.70;92.60;;;;;;5092505;28;20181;-49
2021/12/01 00:05:48;;;;;;;8.80;0.53;;;3.70;92.50;;;;;;5092368;28;20169;-52
2021/12/01 00:08:15;;;;;;;2.70;0.43;;;3.80;92.40;;;;;;5092043;28;20633;-50
2021/12/01 00:10:41;;;;;;;3.10;0.40;;;3.70;92.50;;;;;;5091923;28;20264;-50
2021/12/01 00:13:10;;;;;;;3.00;0.40;;;3.70;92.70;;;;;;5091999;28;20664;-48
2021/12/01 00:15:36;;;;;;;1.53;0.43;;;3.70;92.80;;;;;;5092077;28;20604;-49
2021/12/01 00:18:03;;;;;;;1.10;0.60;;;3.70;92.80;;;;;;5092184;28;20241;-50
2021/12/01 00:20:29;;;;;;;0.53;0.50;;;3.70;92.80;;;;;;5092107;28;20208;-61
2021/12/01 00:22:55;;;;;;;0.93;0.50;;;3.70;92.80;;;;;;5073911;28;20188;-54
2021/12/01 00:25:23;;;;;;;0.47;0.40;;;3.70;93.00;;;;;;5092200;28;20177;-52
2021/12/01 00:27:54;;;;;;;0.53;0.30;;;3.70;93.20;;;;;;5091642;28;20332;-53
2021/12/01 00:30:21;;;;;;;1.07;0.50;;;3.60;93.40;;;;;;5092293;28;20566;-54
2021/12/01 00:32:47;;;;;;;0.70;0.40;;;3.60;93.50;;;;;;5073866;28;20220;-52
2021/12/01 00:35:13;;;;;;;0.60;0.40;;;3.60;93.50;;;;;;5092339;28;20208;-52
2021/12/01 00:37:40;;;;;;;0.80;0.60;;;3.60;93.80;;;;;;5091673;28;20557;-54
2021/12/01 00:40:09;;;;;;;0.67;0.50;;;3.50;93.80;;;;;;5091998;28;20180;-50
2021/12/01 00:42:35;;;;;;;1.30;0.40;;;3.50;93.90;;;;;;5091579;28;20184;-50
2021/12/01 00:45:07;;;;;;;2.03;0.50;;;3.50;94.00;;;;;;5093621;28;20320;-49
2021/12/01 00:47:44;;;;;;;0.63;0.63;;;3.50;94.10;;;;;;5095909;28;20177;-52
2021/12/01 00:50:14;;;;;;;0.63;0.40;;;3.50;94.00;;;;;;5096439;28;20191;-53
2021/12/01 00:52:40;;;;;;;1.43;0.73;;;3.50;94.10;;;;;;5095553;28;20238;-54
2021/12/01 00:55:07;;;;;;;0.20;0.20;;;3.50;94.10;;;;;;5096153;28;20203;-51
2021/12/01 00:57:34;;;;;;;1.13;0.60;;;3.50;94.00;;;;;;5095931;28;20182;-53
2021/12/01 00:59:59;;;;;;;0.50;0.30;;;3.60;94.10;;;;;;5096026;28;20173;-52
2021/12/01 01:02:25;;;;;;;0.20;0.20;;;3.60;94.10;;;;;;5095994;28;20196;-52
2021/12/01 01:04:51;;;;;;;1.27;0.40;;;3.60;94.10;;;;;;5095547;28;20257;-50
2021/12/01 01:07:17;;;;;;;0.27;0.27;;;3.60;94.80;;;;;;5095566;28;20250;-50
2021/12/01 01:09:43;;;;;;;1.13;0.40;;;3.70;94.50;;;;;;5077008;28;20185;-53
2021/12/01 01:17:41;;;;;;;0.60;0.40;;;3.50;94.80;;;;;;5095165;28;20182;-52
2021/12/01 01:20:11;;;;;;;2.03;0.40;;;3.50;95.30;;;;;;5095685;28;20680;-54
2021/12/01 01:22:38;;;;;;;1.10;0.50;;;3.50;95.40;;;;;;5095055;28;20173;-52
2021/12/01 01:25:07;;;;;;;1.83;0.27;;;3.40;95.50;;;;;;5095404;28;20200;-52
2021/12/01 01:27:32;;;;;;;0.97;0.40;;;3.40;95.70;;;;;;5095090;28;20258;-60
2021/12/01 01:29:58;;;;;;;0.77;0.30;;;3.30;95.90;;;;;;5095302;28;20261;-52
2021/12/01 01:32:24;;;;;;;0.30;0.30;;;3.30;95.70;;;;;;5095042;28;20211;-51
2021/12/01 01:34:50;;;;;;;0.97;0.50;;;3.40;95.90;;;;;;5094739;28;20185;-51
2021/12/01 01:37:16;;;;;;;0.70;0.40;;;3.40;96.00;;;;;;5095090;28;20177;-54
2021/12/01 01:39:42;;;;;;;0.60;0.50;;;3.40;96.10;;;;;;5094738;28;20621;-53
2021/12/01 01:42:08;;;;;;;0.20;0.20;;;3.30;96.40;;;;;;5095009;28;20192;-53
2021/12/01 01:44:33;;;;;;;0.40;0.30;;;3.30;96.70;;;;;;5094518;28;20187;-60
2021/12/01 01:46:59;;;;;;;0.30;0.27;;;3.20;96.80;;;;;;5094825;28;20209;-51
2021/12/01 01:49:55;;;;;;;2.03;0.40;;;3.20;97.10;;;;;;5094864;28;20200;-54
2021/12/01 01:52:11;;;;;;;0.40;0.20;;;3.10;97.20;;;;;;5094377;28;20221;-51
2021/12/01 01:54:37;;;;;;;1.07;0.50;;;3.10;97.40;;;;;;5094263;28;20271;-49
2021/12/01 01:57:03;;;;;;;1.53;0.37;;;3.10;97.50;;;;;;5093860;28;20184;-54
2021/12/01 01:59:29;;;;;;;0.70;0.30;;;3.10;97.70;;;;;;5094369;28;20181;-52
2021/12/01 02:01:56;;;;;;;0.20;0.20;;;3.10;97.90;;;;;;5094356;28;20194;-50
2021/12/01 02:04:22;;;;;;;0.30;0.30;;;3.10;98.20;;;;;;5094594;28;20620;-52
2021/12/01 02:06:49;;;;;;;0.30;0.30;;;3.10;98.30;;;;;;5094251;28;20184;-53
2021/12/01 02:09:18;;;;;;;0.43;0.20;;;3.10;98.30;;;;;;5094393;28;20234;-50
2021/12/01 02:11:44;;;;;;;0.53;0.30;;;3.10;98.20;;;;;;5093846;28;20300;-52
2021/12/01 02:14:10;;;;;;;0.97;0.40;;;3.10;97.90;;;;;;5094156;28;20187;-50
2021/12/01 02:16:37;;;;;;;0.63;0.30;;;3.10;97.60;;;;;;5094386;28;20176;-49
2021/12/01 02:19:03;;;;;;;0.53;0.30;;;3.20;97.30;;;;;;5094283;28;20185;-52
2021/12/01 02:21:30;;;;;;;0.30;0.10;;;3.30;97.30;;;;;;5094379;28;20185;-53
2021/12/01 02:24:08;;;;;;;0.67;0.33;;;3.30;97.30;;;;;;5093899;28;20280;-49
2021/12/01 02:26:44;;;;;;;0.63;0.30;;;3.20;97.40;;;;;;5093990;28;20211;-53
2021/12/01 02:29:14;;;;;;;2.53;0.90;;;3.20;97.30;;;;;;5094063;28;20177;-48
2021/12/01 02:31:41;;;;;;;0.20;0.20;;;3.20;97.40;;;;;;5093933;28;20278;-52
2021/12/01 02:34:09;;;;;;;0.77;0.40;;;3.30;97.30;;;;;;5094020;28;20192;-52
2021/12/01 02:36:36;;;;;;;1.30;0.20;;;3.30;97.40;;;;;;5093896;28;20316;-49
2021/12/01 02:39:13;;;;;;;0.80;0.40;;;3.20;97.50;;;;;;5093812;28;20504;-49
2021/12/01 02:41:39;;;;;;;0.63;0.30;;;3.20;97.60;;;;;;5093426;28;20207;-50
2021/12/01 02:44:06;;;;;;;0.87;0.30;;;3.20;97.80;;;;;;5093804;28;20181;-50
2021/12/01 02:46:33;;;;;;;0.40;0.30;;;3.20;97.90;;;;;;5093609;28;20188;-49
2021/12/01 02:49:00;;;;;;;1.50;0.40;;;3.20;98.00;;;;;;5093309;28;20299;-49
2021/12/01 02:51:28;;;;;;;0.50;0.40;;;3.20;98.20;;;;;;5093584;28;20279;-52
2021/12/01 02:53:55;;;;;;;1.33;0.20;;;3.20;98.20;;;;;;5093352;28;20223;-53
2021/12/01 02:56:22;;;;;;;1.13;0.30;;;3.10;98.20;;;;;;5093540;28;20278;-54
2021/12/01 02:58:48;;;;;;;0.73;0.40;;;3.20;98.40;;;;;;5093268;28;20640;-53
2021/12/01 03:01:20;;;;;;;2.53;0.40;;;3.20;98.40;;;;;;5093392;28;20260;-49
2021/12/01 03:03:46;;;;;;;0.43;0.20;;;3.10;98.60;;;;;;5093108;28;20176;-51
2021/12/01 03:06:13;;;;;;;0.80;0.30;;;3.20;98.80;;;;;;5093205;28;20181;-52
2021/12/01 03:08:42;;;;;;;4.13;0.60;;;3.10;98.80;;;;;;5093097;28;20188;-51
2021/12/01 03:11:08;;;;;;;0.60;0.30;;;3.10;98.90;;;;;;5093049;28;20587;-51
2021/12/01 03:13:34;;;;;;;1.60;0.30;;;3.10;99.00;;;;;;5093260;28;20204;-50
2021/12/01 03:16:01;;;;;;;0.60;0.40;;;3.10;98.90;;;;;;5092720;28;20515;-48
2021/12/01 03:18:27;;;;;;;1.17;0.53;;;3.10;98.90;;;;;;5092943;28;20213;-53
2021/12/01 03:20:55;;;;;;;0.50;0.20;;;3.10;99.00;;;;;;5092532;28;20708;-51
2021/12/01 03:23:22;;;;;;;0.30;0.30;;;3.10;99.00;;;;;;5092990;28;20246;-53
2021/12/01 03:25:48;;;;;;;0.67;0.30;;;3.10;99.30;;;;;;5092833;28;20177;-49
2021/12/01 03:28:14;;;;;;;0.23;0.20;;;3.10;99.10;;;;;;5091897;28;20592;-52
2021/12/01 03:30:41;;;;;;;2.60;0.30;;;3.10;99.00;;;;;;5092617;28;20176;-53
2021/12/01 03:33:10;;;;;;;0.63;0.40;;;3.10;98.90;;;;;;5092357;28;20270;-55
2021/12/01 03:35:38;;;;;;;0.30;0.27;;;3.10;99.10;;;;;;5092955;28;20242;-49
2021/12/01 03:38:04;;;;;;;1.33;0.40;;;3.20;99.10;;;;;;5092446;28;20185;-52
2021/12/01 03:40:29;;;;;;;0.40;0.30;;;3.10;99.20;;;;;;5093150;28;20181;-51
2021/12/01 03:42:55;;;;;;;0.80;0.30;;;3.10;99.30;;;;;;5092054;28;20176;-52
2021/12/01 03:45:21;;;;;;;0.23;0.20;;;3.10;99.20;;;;;;5092451;28;20635;-52
2021/12/01 03:47:47;;;;;;;2.07;0.53;;;3.10;99.40;;;;;;5092272;28;20178;-50
2021/12/01 03:50:13;;;;;;;2.53;0.50;;;3.10;99.20;;;;;;5092481;28;20217;-53
2021/12/01 03:52:39;;;;;;;0.30;0.20;;;3.10;99.20;;;;;;5092441;28;20219;-51
2021/12/01 03:55:06;;;;;;;0.40;0.30;;;3.20;99.30;;;;;;5092215;28;20293;-51
2021/12/01 03:57:32;;;;;;;1.53;0.60;;;3.20;99.30;;;;;;5074243;28;20532;-53
2021/12/01 03:59:58;;;;;;;0.53;0.23;;;3.10;99.40;;;;;;5092035;28;20179;-50
2021/12/01 04:02:24;;;;;;;0.60;0.20;;;3.20;99.40;;;;;;5092161;28;20543;-51
2021/12/01 04:04:49;;;;;;;0.40;0.20;;;3.20;99.40;;;;;;5092090;28;20176;-53
2021/12/01 04:07:15;;;;;;;0.50;0.30;;;3.20;99.50;;;;;;5092414;28;20181;-51
2021/12/01 04:09:43;;;;;;;0.93;0.50;;;3.20;99.40;;;;;;5074062;28;20177;-58
2021/12/01 04:12:09;;;;;;;0.50;0.30;;;3.20;99.30;;;;;;5091811;28;20309;-50
2021/12/01 04:14:35;;;;;;;3.97;0.40;;;3.20;99.40;;;;;;5091868;28;20173;-53
2021/12/01 04:17:01;;;;;;;1.40;0.53;;;3.20;99.50;;;;;;5091554;28;20519;-54
2021/12/01 04:19:27;;;;;;;0.90;0.40;;;3.20;99.50;;;;;;5091798;28;20208;-51
2021/12/01 04:21:53;;;;;;;0.63;0.30;;;3.20;99.50;;;;;;5091725;28;20214;-54
2021/12/01 04:24:19;;;;;;;0.40;0.30;;;3.20;99.60;;;;;;5091663;28;20628;-51
2021/12/01 04:26:44;;;;;;;4.50;1.00;;;3.20;99.60;;;;;;5091498;28;20188;-51
2021/12/01 04:29:10;;;;;;;2.50;0.70;;;3.20;99.70;;;;;;5091738;28;20267;-53
2021/12/01 04:31:38;;;;;;;1.27;0.43;;;3.20;99.60;;;;;;5092167;28;20180;-52
2021/12/01 04:34:04;;;;;;;0.90;0.53;;;3.20;99.70;;;;;;5091668;28;20215;-52
2021/12/01 04:36:36;;;;;;;0.90;0.50;;;3.20;99.70;;;;;;5091985;28;20179;-49
2021/12/01 04:39:05;;;;;;;0.30;0.20;;;3.30;99.70;;;;;;5091633;28;20189;-49
2021/12/01 04:41:37;;;;;;;5.67;0.70;;;3.20;99.70;;;;;;5091994;28;20176;-52
2021/12/01 04:44:08;;;;;;;0.93;0.70;;;3.20;99.90;;;;;;5091203;28;20220;-53
2021/12/01 04:46:40;;;;;;;2.07;0.73;;;3.20;99.90;;;;;;5091641;28;20173;-51
2021/12/01 04:49:07;;;;;;;2.50;0.70;;;3.20;99.90;;;;;;5091605;28;20275;-53
2021/12/01 04:51:33;;;;;;;1.27;0.37;;;3.10;99.90;;;;;;5091548;28;20185;-48
2021/12/01 04:53:59;;;;;;;0.40;0.30;;;3.20;99.90;;;;;;5091570;28;20582;-51
2021/12/01 04:56:25;;;;;;;0.97;0.60;;;3.20;99.80;;;;;;5091337;28;20276;-52
2021/12/01 04:58:50;;;;;;;1.03;0.50;;;3.30;99.80;;;;;;5091323;28;20184;-51
2021/12/01 05:01:17;;;;;;;1.37;0.60;;;3.30;99.60;;;;;;5091265;28;20185;-53
2021/12/01 05:03:43;;;;;;;6.00;1.40;;;3.30;99.60;;;;;;5091425;28;20828;-52
2021/12/01 05:06:12;;;;;;;1.10;0.30;;;3.30;99.70;;;;;;5073251;28;20190;-51
2021/12/01 05:08:38;;;;;;;0.30;0.30;;;3.30;99.70;;;;;;5090951;28;20558;-50
2021/12/01 05:11:04;;;;;;;1.63;0.50;;;3.40;99.60;;;;;;5090916;28;20232;-53
2021/12/01 05:13:30;;;;;;;2.53;0.53;;;3.30;99.50;;;;;;5090970;28;20570;-52
2021/12/01 05:15:56;;;;;;;0.87;0.40;;;3.30;99.60;;;;;;5090897;28;20256;-52
2021/12/01 05:18:22;;;;;;;0.30;0.30;;;3.20;99.80;;;;;;5091297;28;20264;-53
2021/12/01 05:20:48;;;;;;;1.70;0.70;;;3.20;99.90;;;;;;5091011;28;20675;-51
2021/12/01 05:23:15;;;;;;;3.13;0.80;;;3.10;99.90;;;;;;5091082;28;20211;-51
2021/12/01 05:25:42;;;;;;;0.50;0.40;;;3.10;99.90;;;;;;5090936;28;20190;-50
2021/12/01 05:28:08;;;;;;;2.93;0.60;;;3.00;99.90;;;;;;5091032;28;20173;-54
2021/12/01 05:30:34;;;;;;;1.40;0.53;;;3.00;99.90;;;;;;5090822;28;20230;-51
2021/12/01 05:33:05;;;;;;;1.27;0.60;;;3.10;99.90;;;;;;5075623;28;20277;-53
2021/12/01 05:35:32;;;;;;;1.67;0.67;;;3.10;99.90;;;;;;5095177;28;20223;-57
2021/12/01 05:37:58;;;;;;;1.83;0.60;;;3.20;99.90;;;;;;5094651;28;20180;-51
2021/12/01 05:40:23;;;;;;;1.00;0.60;;;3.20;99.90;;;;;;5094462;28;20188;-53
2021/12/01 05:42:49;;;;;;;1.37;0.70;;;3.20;99.90;;;;;;5094237;28;20211;-52
2021/12/01 05:45:16;;;;;;;2.30;0.50;;;3.20;99.90;;;;;;5094655;28;20188;-49
2021/12/01 05:47:41;;;;;;;1.97;0.67;;;3.20;99.90;;;;;;5094215;28;20177;-52
2021/12/01 05:50:07;;;;;;;1.03;0.50;;;3.30;99.90;;;;;;5094011;28;20183;-53
2021/12/01 05:52:33;;;;;;;3.10;0.80;;;3.30;99.90;;;;;;5093761;28;20215;-53
2021/12/01 05:54:59;;;;;;;1.77;1.00;;;3.30;99.90;;;;;;5075896;28;20260;-53
2021/12/01 05:57:25;;;;;;;1.80;0.70;;;3.30;99.90;;;;;;5076039;28;20645;-53
2021/12/01 05:59:51;;;;;;;1.60;0.70;;;3.30;99.90;;;;;;5094072;28;20177;-54
2021/12/01 06:02:17;;;;;;;1.53;0.90;;;3.30;99.90;;;;;;5093978;28;20636;-52
2021/12/01 06:04:43;;;;;;;3.70;0.83;;;3.30;99.90;;;;;;5093959;28;20226;-53
2021/12/01 06:07:08;;;;;;;1.53;0.80;;;3.20;99.90;;;;;;5075058;28;20231;-52
2021/12/01 06:09:34;;;;;;;1.87;0.90;;;3.20;99.90;;;;;;5093467;28;20573;-53
2021/12/01 06:12:00;;;;;;;2.47;0.90;;;3.20;99.90;;;;;;5093540;28;20224;-54
2021/12/01 06:14:27;;;;;;;1.80;0.70;;;3.30;99.90;;;;;;5093486;28;20188;-55
2021/12/01 06:16:53;;;;;;;3.10;1.03;;;3.40;99.90;;;;;;5092825;28;20188;-52
2021/12/01 06:19:19;;;;;;;4.00;1.47;;;3.50;99.90;;;;;;5093479;28;20207;-53
2021/12/01 06:21:45;;;;;;;4.73;1.17;;;3.50;99.90;;;;;;5074941;28;20181;-56
2021/12/01 06:24:11;;;;;;;4.63;1.27;;;3.50;99.90;;;;;;5093128;28;20188;-54
2021/12/01 06:26:37;;;;;;;3.60;1.20;;;3.50;99.90;;;;;;5093084;28;20222;-50
2021/12/01 06:29:04;;;;;;;2.47;1.40;;;3.50;99.90;;;;;;5058342;28;20189;-53
2021/12/01 06:31:30;;;;;;;1.83;0.83;;;3.50;99.90;;;;;;5093136;28;20273;-51
2021/12/01 06:33:58;;;;;;;2.77;1.23;;;3.50;99.90;;;;;;5092974;28;20220;-53
2021/12/01 06:36:24;;;;;;;3.77;1.77;;;3.50;99.90;;;;;;5092844;28;20285;-51
2021/12/01 06:38:50;;;;;;;2.87;1.30;;;3.50;99.90;;;;;;5093017;28;20625;-51
2021/12/01 06:41:16;;;;;;;2.90;1.40;;;3.50;99.90;;;;;;5093064;28;20184;-54
2021/12/01 06:43:42;;;;;;;3.53;1.87;;;3.50;99.90;;;;;;5092704;28;20218;-52
2021/12/01 06:46:07;;;;;;;6.13;1.80;;;3.60;99.70;;;;;;5092469;28;20173;-56
2021/12/01 06:48:33;;;;;;;9.40;1.83;;;3.80;99.40;;;;;;5092283;28;20213;-54
2021/12/01 06:50:59;;;;;;;4.10;1.73;;;3.80;99.20;;;;;;5092365;28;20590;-56
2021/12/01 06:53:26;;;;;;;14.57;2.87;;;4.00;99.30;;;;;;5092355;28;20205;-54
2021/12/01 06:55:53;;;;;;;4.57;1.87;;;4.10;99.10;;;;;;5092687;28;20645;-55
2021/12/01 06:58:19;;;;;;;3.57;1.60;;;4.20;98.80;;;;;;5074438;28;20201;-52
2021/12/01 07:00:45;;;;;;;3.63;1.30;;;4.20;98.50;;;;;;5092890;28;20189;-51
2021/12/01 07:03:11;;;;;;;4.57;1.60;;;4.20;98.40;;;;;;5091989;28;20181;-50
2021/12/01 07:05:37;;;;;;;9.17;2.00;;;4.20;98.40;;;;;;5092189;28;20624;-48
2021/12/01 07:08:04;;;;;;;4.73;2.20;;;4.20;98.50;;;;;;5092112;28;20213;-51
2021/12/01 07:10:30;;;;;;;5.93;1.87;;;4.30;98.20;;;;;;5091699;28;20567;-53
2021/12/01 07:12:55;;;;;;;7.23;2.20;;;4.30;98.30;;;;;;5092369;28;20300;-53
2021/12/01 07:15:22;;;;;;;5.70;2.10;;;4.30;98.20;;;;;;5092376;28;20530;-52
2021/12/01 07:17:47;;;;;;;6.50;2.00;;;4.40;98.60;;;;;;5092042;28;20178;-52
2021/12/01 07:20:14;;;;;;;4.60;1.60;;;4.50;97.90;;;;;;5073684;28;20268;-53
2021/12/01 07:22:41;;;;;;;4.97;1.57;;;4.50;97.70;;;;;;5092319;28;20174;-54
2021/12/01 07:25:08;;;;;;;12.37;2.20;;;4.60;97.70;;;;;;5092261;28;20174;-54
2021/12/01 07:27:34;;;;;;;3.57;1.50;;;4.60;97.60;;;;;;5074514;28;20217;-52
2021/12/01 07:30:00;;;;;;;18.57;5.97;;;4.80;97.50;;;;;;5092233;28;20191;-52
2021/12/01 07:32:26;;;;;;;10.07;3.90;;;4.80;96.90;;;;;;5091856;28;20554;-51
2021/12/01 07:34:52;;;;;;;17.33;7.57;;;4.90;96.70;;;;;;5091687;28;20279;-60
2021/12/01 07:37:19;;;;;;;21.50;9.20;;;4.90;96.90;;;;;;5073749;28;20269;-53
2021/12/01 07:39:46;;;;;;;12.67;3.40;;;4.90;96.60;;;;;;5091732;28;20524;-55
2021/12/01 07:42:15;;;;;;;17.97;5.23;;;5.00;96.40;;;;;;5091696;28;20180;-54
2021/12/01 07:44:41;;;;;;;14.50;6.83;;;5.00;96.10;;;;;;5092059;28;20716;-52
2021/12/01 07:47:08;;;;;;;26.53;9.53;;;5.00;96.30;;;;;;5091337;28;20196;-53
2021/12/01 07:49:34;;;;;;;20.83;8.73;;;5.10;96.40;;;;;;5073522;28;20259;-53
2021/12/01 07:52:00;;;;;;;17.77;7.00;;;5.30;96.20;;;;;;5091169;28;20612;-54
2021/12/01 07:54:26;;;;;;;21.57;9.10;;;5.40;95.60;;;;;;5091082;28;20194;-53
2021/12/01 07:56:52;;;;;;;13.83;6.03;;;5.50;95.30;;;;;;5091469;28;20549;-53
2021/12/01 07:59:18;;;;;;;7.97;4.07;;;5.60;95.30;;;;;;5091666;28;20602;-52
2021/12/01 08:01:44;;;;;;;6.10;2.87;;;5.70;94.60;;;;;;5091530;28;20238;-49
2021/12/01 08:04:12;;;;;;;12.70;2.87;;;5.70;94.50;;;;;;5090962;28;20269;-54
2021/12/01 08:06:38;;;;;;;6.93;2.73;;;5.70;94.70;;;;;;5091195;28;20578;-53
2021/12/01 08:09:05;;;;;;;5.57;2.43;;;5.70;94.60;;;;;;5091470;28;20179;-51
2021/12/01 08:11:32;;;;;;;11.23;2.50;;;5.60;95.10;;;;;;5091251;28;20295;-53
2021/12/01 08:13:57;;;;;;;3.37;1.90;;;5.60;95.70;;;;;;5090958;28;20221;-58
2021/12/01 08:16:25;;;;;;;8.57;2.13;;;5.60;95.90;;;;;;5091086;28;20595;-54
2021/12/01 08:18:53;;;;;;;3.93;1.80;;;5.60;96.00;;;;;;5091227;28;20253;-54
2021/12/01 08:21:20;;;;;;;6.33;2.20;;;5.50;96.30;;;;;;5091090;28;20194;-56
2021/12/01 08:23:46;;;;;;;3.27;1.87;;;5.60;96.60;;;;;;5091597;28;20231;-54
2021/12/01 08:26:12;;;;;;;4.07;2.10;;;5.60;96.80;;;;;;5090869;28;20188;-52
2021/12/01 08:28:38;;;;;;;3.73;1.77;;;5.60;96.70;;;;;;5090649;28;20181;-53
2021/12/01 08:31:04;;;;;;;7.33;3.07;;;5.70;96.50;;;;;;5090888;28;20722;-49
2021/12/01 08:33:29;;;;;;;6.43;1.97;;;5.80;96.60;;;;;;5090557;28;20209;-49
2021/12/01 08:35:55;;;;;;;13.07;2.83;;;5.90;96.70;;;;;;5073140;28;20181;-63
2021/12/01 08:38:21;;;;;;;9.87;2.30;;;6.00;96.60;;;;;;5091176;28;20640;-53
2021/12/01 08:40:47;;;;;;;4.17;2.43;;;6.20;96.40;;;;;;5090450;28;20185;-54
2021/12/01 08:43:12;;;;;;;6.37;2.50;;;6.40;96.10;;;;;;5090448;28;20199;-56
2021/12/01 08:45:38;;;;;;;6.17;1.90;;;6.60;95.90;;;;;;5091039;28;20183;-54
2021/12/01 08:48:05;;;;;;;3.77;1.53;;;6.50;95.70;;;;;;5072552;28;20645;-54
2021/12/01 08:50:32;;;;;;;2.97;1.30;;;6.60;95.40;;;;;;5090388;28;20528;-53
2021/12/01 08:52:58;;;;;;;5.33;1.73;;;6.40;95.70;;;;;;5090224;28;20211;-58
2021/12/01 08:55:24;;;;;;;7.83;2.30;;;6.30;95.90;;;;;;5090702;28;20519;-54
2021/12/01 08:57:51;;;;;;;3.83;1.50;;;6.30;96.30;;;;;;5090843;28;20184;-55
2021/12/01 09:00:19;;;;;;;5.37;2.07;;;6.30;96.00;;;;;;5072422;28;20533;-51
2021/12/01 09:02:45;;;;;;;4.93;1.90;;;6.20;95.90;;;;;;5090535;28;20215;-54
2021/12/01 09:05:11;;;;;;;3.53;1.70;;;6.30;95.50;;;;;;5090960;28;20614;-54
2021/12/01 09:07:37;;;;;;;2.73;1.80;;;6.40;95.30;;;;;;5094969;28;20204;-54
2021/12/01 09:10:04;;;;;;;4.80;2.00;;;6.50;95.20;;;;;;5094393;28;20179;-56
2021/12/01 09:12:30;;;;;;;5.40;2.07;;;6.60;94.80;;;;;;5094455;28;20670;-51
2021/12/01 09:14:57;;;;;;;4.30;2.00;;;6.50;95.00;;;;;;5094638;28;20636;-54
2021/12/01 09:17:26;;;;;;;6.97;2.00;;;6.40;94.90;;;;;;5094412;28;20224;-54
2021/12/01 09:19:52;;;;;;;5.40;2.10;;;6.50;95.20;;;;;;5094216;28;20284;-48
2021/12/01 09:22:20;;;;;;;9.33;2.67;;;6.60;94.10;;;;;;5093815;28;20698;-51
2021/12/01 09:24:47;;;;;;;5.10;2.80;;;6.60;94.10;;;;;;5094075;28;20181;-53
2021/12/01 09:27:14;;;;;;;4.37;1.83;;;6.80;94.10;;;;;;5093871;28;20251;-52
2021/12/01 09:29:42;;;;;;;3.87;1.90;;;6.90;93.20;;;;;;5093895;28;20188;-50
2021/12/01 09:32:08;;;;;;;4.87;2.17;;;6.90;92.30;;;;;;5093878;28;20261;-53
2021/12/01 09:34:34;;;;;;;6.87;2.43;;;6.90;92.30;;;;;;5093709;28;20185;-52
2021/12/01 09:37:00;;;;;;;4.97;2.47;;;6.90;92.00;;;;;;5075366;28;20240;-62
2021/12/01 09:39:26;;;;;;;12.27;3.17;;;7.00;92.20;;;;;;5093837;28;20185;-54
2021/12/01 09:41:54;;;;;;;6.77;2.80;;;7.10;92.00;;;;;;5093894;28;20590;-55
2021/12/01 09:44:20;;;;;;;7.93;2.67;;;7.10;91.60;;;;;;5093458;28;20185;-53
2021/12/01 09:46:46;;;;;;;9.10;3.03;;;7.00;91.90;;;;;;5093361;28;20225;-53
2021/12/01 09:49:12;;;;;;;15.83;4.97;;;7.00;91.90;;;;;;5093657;28;20177;-54
2021/12/01 09:51:37;;;;;;;6.77;2.70;;;7.10;92.00;;;;;;5075191;28;20584;-51
2021/12/01 09:54:04;;;;;;;8.93;3.10;;;6.90;91.40;;;;;;5093386;28;20216;-52
2021/12/01 09:56:31;;;;;;;8.20;3.53;;;6.90;91.60;;;;;;5093523;28;20271;-55
2021/12/01 09:58:58;;;;;;;11.23;3.40;;;6.80;91.70;;;;;;5093500;28;20180;-57
2021/12/01 10:01:25;;;;;;;10.43;3.50;;;6.80;91.90;;;;;;5093298;28;20212;-56
2021/12/01 10:03:52;;;;;;;8.63;2.77;;;6.90;92.10;;;;;;5093077;28;20185;-56
2021/12/01 10:06:20;;;;;;;10.63;4.33;;;6.80;92.40;;;;;;5093442;28;20181;-52
2021/12/01 10:08:51;;;;;;;10.70;4.60;;;6.90;92.80;;;;;;5093322;28;20621;-56
2021/12/01 10:11:22;;;;;;;11.80;4.83;;;6.80;92.80;;;;;;5092621;28;20247;-51
2021/12/01 10:14:03;;;;;;;19.17;6.27;;;6.90;93.00;;;;;;5093339;28;20217;-56
2021/12/01 10:16:32;;;;;;;12.40;3.30;;;6.90;93.20;;;;;;5093392;28;20185;-52
2021/12/01 10:19:01;;;;;;;9.17;3.30;;;6.90;92.80;;;;;;5092999;28;20220;-56
2021/12/01 10:21:42;;;;;;;12.73;4.53;;;6.90;92.90;;;;;;5093091;28;20173;-54
2021/12/01 10:24:10;;;;;;;5.77;2.20;;;7.00;93.00;;;;;;5093249;28;20223;-55
2021/12/01 10:26:51;;;;;;;6.87;2.93;;;6.80;92.00;;;;;;5093529;28;20215;-53
2021/12/01 10:29:20;;;;;;;7.27;2.33;;;6.80;92.10;;;;;;5092740;28;20226;-57
2021/12/01 10:31:52;;;;;;;8.60;2.93;;;6.70;92.10;;;;;;5093000;28;20168;-53
2021/12/01 10:34:20;;;;;;;8.10;2.70;;;6.70;92.10;;;;;;5092573;28;20227;-54
2021/12/01 10:36:49;;;;;;;6.33;2.20;;;6.60;91.80;;;;;;5093194;28;20173;-53
2021/12/01 10:39:15;;;;;;;15.90;3.80;;;6.70;92.20;;;;;;5092766;28;20215;-53
2021/12/01 10:41:43;;;;;;;6.43;2.30;;;6.80;91.80;;;;;;5092634;28;20272;-53
2021/12/01 10:44:15;;;;;;;12.30;3.23;;;6.80;91.70;;;;;;5092660;28;20549;-55
2021/12/01 10:46:50;;;;;;;10.90;2.70;;;6.80;91.70;;;;;;5092651;28;20570;-51
2021/12/01 10:49:17;;;;;;;11.17;2.40;;;6.90;91.40;;;;;;5091489;28;20185;-56
2021/12/01 10:51:44;;;;;;;6.73;2.50;;;7.00;91.50;;;;;;5092064;28;20189;-53
2021/12/01 10:54:16;;;;;;;2.23;1.27;;;6.90;90.20;;;;;;5092354;28;20748;-54
2021/12/01 10:56:42;;;;;;;3.03;1.47;;;6.90;87.60;;;;;;5074167;28;20188;-52
2021/12/01 10:59:12;;;;;;;5.10;1.40;;;7.00;89.00;;;;;;5092424;28;20189;-56
2021/12/01 11:01:38;;;;;;;4.73;1.37;;;6.90;86.50;;;;;;5072510;28;20219;-55
2021/12/01 11:04:05;;;;;;;2.50;1.47;;;6.80;84.70;;;;;;5072372;28;20194;-63
2021/12/01 11:06:37;;;;;;;6.00;1.63;;;6.80;83.10;;;;;;5071916;28;20186;-53
2021/12/01 11:09:02;;;;;;;3.63;1.47;;;6.80;82.20;;;;;;5071773;28;20273;-56
2021/12/01 11:11:39;;;;;;;2.17;0.93;;;6.70;82.00;;;;;;5071395;28;20237;-55
2021/12/01 11:14:16;;;;;;;8.90;2.27;;;6.70;81.50;;;;;;5071985;28;20225;-55
2021/12/01 11:16:44;;;;;;;6.07;1.80;;;6.70;81.30;;;;;;5072681;28;20264;-53
2021/12/01 11:19:11;;;;;;;6.33;2.23;;;6.80;81.70;;;;;;5071798;28;20186;-54
2021/12/01 11:21:38;;;;;;;3.00;1.60;;;6.80;81.20;;;;;;5071640;28;20180;-54
2021/12/01 11:24:13;;;;;;;8.10;2.10;;;6.90;82.00;;;;;;5037683;28;20197;-54
2021/12/01 11:26:44;;;;;;;4.57;1.60;;;7.00;81.40;;;;;;5072062;28;20293;-52
2021/12/01 11:29:15;;;;;;;2.57;1.43;;;7.10;81.50;;;;;;5070654;28;20193;-57
2021/12/01 11:31:46;;;;;;;5.37;1.40;;;7.00;82.40;;;;;;5071984;28;20646;-55
2021/12/01 11:34:17;;;;;;;5.50;1.10;;;6.80;81.60;;;;;;5071735;28;20571;-55
2021/12/01 11:36:49;;;;;;;10.03;1.20;;;6.70;81.70;;;;;;5071881;28;20182;-53
2021/12/01 11:39:18;;;;;;;3.10;1.30;;;6.70;82.00;;;;;;5071026;28;20543;-55
2021/12/01 11:41:47;;;;;;;3.00;1.13;;;6.70;81.60;;;;;;5071630;28;20198;-55
2021/12/01 11:44:14;;;;;;;2.77;1.00;;;6.70;81.70;;;;;;5071213;28;20234;-55
2021/12/01 11:46:40;;;;;;;3.53;1.10;;;6.70;80.90;;;;;;5071465;28;20266;-56
2021/12/01 11:49:11;;;;;;;1.47;1.10;;;6.80;81.50;;;;;;5071058;28;20200;-53
2021/12/01 11:51:59;;;;;;;2.37;1.10;;;6.80;80.40;;;;;;5071448;28;20178;-53
2021/12/01 11:54:26;;;;;;;5.17;1.10;;;6.90;80.50;;;;;;5070830;28;20225;-54
2021/12/01 11:56:56;;;;;;;1.93;0.80;;;7.00;80.60;;;;;;5071163;28;20184;-52
2021/12/01 11:59:27;;;;;;;2.50;0.60;;;7.00;80.30;;;;;;5072297;28;20587;-53
2021/12/01 12:02:04;;;;;;;4.00;0.90;;;6.90;80.20;;;;;;5090905;28;20198;-51
2021/12/01 12:04:45;;;;;;;1.27;0.70;;;7.00;79.60;;;;;;5090833;28;20246;-54
2021/12/01 12:07:16;;;;;;;3.27;0.93;;;6.90;78.60;;;;;;5091118;28;20278;-55
2021/12/01 12:09:42;;;;;;;0.77;0.43;;;6.90;77.40;;;;;;5090850;28;20177;-52
2021/12/01 12:12:14;;;;;;;4.00;0.83;;;6.90;77.30;;;;;;5083892;28;20259;-56
2021/12/01 12:14:46;;;;;;;1.47;0.60;;;6.90;78.40;;;;;;5091108;28;20274;-58
2021/12/01 12:17:18;;;;;;;0.93;0.50;;;6.90;77.10;;;;;;5090764;28;20233;-54
2021/12/01 12:19:44;;;;;;;3.10;0.80;;;6.90;76.90;;;;;;5091237;28;20481;-54
2021/12/01 12:22:20;;;;;;;0.90;0.50;;;6.80;77.20;;;;;;5090944;28;20191;-55
2021/12/01 12:24:52;;;;;;;1.93;1.10;;;6.70;77.20;;;;;;5091105;28;20214;-54
2021/12/01 12:27:42;;;;;;;3.63;1.60;;;6.60;78.00;;;;;;5090817;28;20718;-54
2021/12/01 12:30:37;;;;;;;5.10;1.70;;;6.60;80.00;;;;;;5091268;28;20185;-55
2021/12/01 12:33:40;;;;;;;11.57;3.00;;;6.60;82.00;;;;;;5073267;28;20235;-54
2021/12/01 12:36:09;;;;;;;8.87;3.63;;;6.50;84.60;;;;;;5048727;28;20663;-56
2021/12/01 12:38:35;;;;;;;9.43;3.37;;;6.50;85.60;;;;;;5091115;28;20268;-52
2021/12/01 12:41:08;;;;;;;10.47;3.47;;;6.40;85.70;;;;;;5092860;28;20620;-55
2021/12/01 12:43:36;;;;;;;9.00;3.53;;;6.30;86.10;;;;;;5093533;28;20200;-55
2021/12/01 12:46:06;;;;;;;7.20;2.90;;;6.30;86.40;;;;;;5095286;28;20192;-55
2021/12/01 12:48:41;;;;;;;11.97;2.67;;;6.30;86.60;;;;;;5095036;28;20579;-54
2021/12/01 12:51:11;;;;;;;8.93;2.13;;;6.30;86.80;;;;;;5095504;28;20266;-53
2021/12/01 12:54:04;;;;;;;6.63;2.60;;;6.30;86.80;;;;;;5094697;28;20227;-55
2021/12/01 12:56:38;;;;;;;8.77;2.77;;;6.30;86.60;;;;;;5094605;28;20188;-54
2021/12/01 12:59:23;;;;;;;6.57;3.20;;;6.40;86.60;;;;;;5095091;28;20190;-55
2021/12/01 13:02:07;;;;;;;9.37;3.10;;;6.30;86.40;;;;;;5074766;28;20585;-51
2021/12/01 13:07:32;;;;;;;6.77;3.43;;;6.20;87.00;;;;;;5074429;28;20185;-51